Maple Lake, MN

3:12 AM CST on December 06, 2016 (GMT -0600)
Maple Lake Municipal | | Change Station

Elev 1027 ft 45.24 °N, 93.99 °W | Updated 19 minutes ago

Overcast
Overcast
29 °F
Feels Like 20 °F
N
12
Wind Variable Wind from SW
Gusts 21 mph

Today
High -- | Low -- °F
--% Chance of Precip.
Yesterday
High -- | Low -- °F
Precip. -- in
Pressure 29.70 in
Visibility 10.0 miles
Clouds Overcast 1800 ft
Windchill 20 °F
Dew Point 24 °F
Humidity 80%
Rainfall 0.00 in
Snow Depth Not available.
7:40 AM 4:33 PM
Waxing Crescent, 40% visible
METAR KMGG 060853Z AUTO 23010G18KT 190V260 10SM OVC018 M01/M04 A2970 RMK AO2 T10151045
Pressure 29.70 in
Visibility 10.0 miles
Clouds Overcast 1800 ft
Windchill 20 °F
Dew Point 24 °F
Humidity 80%
Rainfall 0.00 in
Snow Depth Not available.
7:40 AM 4:33 PM
Waxing Crescent, 40% visible
METAR KMGG 060853Z AUTO 23010G18KT 190V260 10SM OVC018 M01/M04 A2970 RMK AO2 T10151045

10-Day Weather Forecast

Almanac

Astronomy

Dec. 06, 2016 Rise Set
Actual Time
Civil Twilight
Nautical Twilight
Astronomical Twilight
Moon
Length of Visible Light
Length of Day
Tomorrow will be .
, % of the Moon is Illuminated

Today's Extremes

State Highs State Lows

Community

WunderPhotos

Upload Photos

1,955,935 photos uploaded!

WunderBlog® & News

Nearby

Air Quality

  Air Quality AQ Index Pollutant
Not available.

Snow Depth

Station Depth Elevation

Earthquake Activity

City Distance Mag. Time & Date
Minimum magnitude displayed is 2.5.

Coastal Water Temperatures

Place Temperature

Stations

Nearby Weather Stations

Station Location Temp. Windchill Dew Point Humidity Wind Precip. Elev Updated Type
                   

Watches & Warnings

There are currently no watches in effect.